createdAt,value
2022-11-21T00:02:16.082Z,96.10
2022-11-21T00:04:45.674Z,96.10
2022-11-21T00:07:15.261Z,96.20
2022-11-21T00:09:44.873Z,96.20
2022-11-21T00:12:14.426Z,96.20
2022-11-21T00:14:44.001Z,96.20
2022-11-21T00:17:13.616Z,96.30
2022-11-21T00:19:43.184Z,96.30
2022-11-21T00:22:12.789Z,96.30
2022-11-21T00:24:42.334Z,96.30
2022-11-21T00:27:12.103Z,96.20
2022-11-21T00:29:41.614Z,96.30
2022-11-21T00:32:11.368Z,96.30
2022-11-21T00:34:41.922Z,96.30
2022-11-21T00:37:14.869Z,96.30
2022-11-21T00:39:44.837Z,96.30
2022-11-21T00:42:14.757Z,96.30
2022-11-21T00:44:44.651Z,96.30
2022-11-21T00:47:15.099Z,96.30
2022-11-21T00:49:45.092Z,96.30
2022-11-21T00:52:15.176Z,96.20
2022-11-21T00:54:45.087Z,96.20
2022-11-21T00:57:15.093Z,96.10
2022-11-21T00:59:45.055Z,96.00
2022-11-21T01:02:15.587Z,96.00
2022-11-21T01:04:45.607Z,95.90
2022-11-21T01:07:16.640Z,95.80
2022-11-21T01:09:46.253Z,95.70
2022-11-21T01:12:15.837Z,95.60
2022-11-21T01:14:45.400Z,95.50
2022-11-21T01:17:15.021Z,95.40
2022-11-21T01:19:44.602Z,95.40
2022-11-21T01:22:14.235Z,95.30
2022-11-21T01:24:43.767Z,95.10
2022-11-21T01:27:13.342Z,95.00
2022-11-21T01:29:42.936Z,94.90
2022-11-21T01:32:12.533Z,94.80
2022-11-21T01:34:42.469Z,94.70
2022-11-21T01:37:12.393Z,94.60
2022-11-21T01:39:42.347Z,94.50
2022-11-21T01:42:15.583Z,94.30
2022-11-21T01:44:56.100Z,94.20
2022-11-21T01:47:26.003Z,94.10
2022-11-21T01:49:58.245Z,93.90
2022-11-21T01:52:32.203Z,93.90
2022-11-21T01:55:11.780Z,93.70
2022-11-21T01:57:47.595Z,93.60
2022-11-21T02:00:28.439Z,93.50
2022-11-21T02:03:04.061Z,93.40
2022-11-21T02:05:38.224Z,93.30
2022-11-21T02:08:19.850Z,93.10
2022-11-21T02:11:28.964Z,93.00
2022-11-21T02:13:59.231Z,92.90
2022-11-21T02:16:30.184Z,92.70
2022-11-21T02:19:00.112Z,92.70
2022-11-21T02:21:55.191Z,92.60
2022-11-21T02:25:00.621Z,92.60
2022-11-21T02:27:31.167Z,92.50
2022-11-21T02:30:01.202Z,92.50
2022-11-21T02:32:51.131Z,92.30
2022-11-21T02:35:21.994Z,92.30
2022-11-21T02:38:02.442Z,92.10
2022-11-21T02:40:36.992Z,91.90
2022-11-21T02:43:20.975Z,91.70
2022-11-21T02:45:50.619Z,91.50
2022-11-21T02:48:20.245Z,91.30
2022-11-21T02:50:50.192Z,91.10
2022-11-21T02:53:21.335Z,90.70
2022-11-21T02:55:50.903Z,90.50
2022-11-21T02:58:21.281Z,90.40
2022-11-21T03:00:51.020Z,90.00
2022-11-21T03:03:20.728Z,89.90
2022-11-21T03:05:50.500Z,89.40
2022-11-21T03:08:20.417Z,89.20
2022-11-21T03:10:50.466Z,88.90
2022-11-21T03:13:20.386Z,88.70
2022-11-21T03:15:50.339Z,88.50
2022-11-21T03:18:20.148Z,88.30
2022-11-21T03:20:50.175Z,88.10
2022-11-21T03:23:20.210Z,87.20
2022-11-21T03:25:50.158Z,86.80
2022-11-21T03:28:20.063Z,86.90
2022-11-21T03:30:50.174Z,86.70
2022-11-21T03:33:20.352Z,86.30
2022-11-21T03:35:50.537Z,85.50
2022-11-21T03:38:20.113Z,85.10
2022-11-21T03:40:49.854Z,84.80
2022-11-21T03:43:19.545Z,84.60
2022-11-21T03:45:49.967Z,84.40
2022-11-21T03:48:19.496Z,83.70
2022-11-21T03:50:49.203Z,83.90
2022-11-21T03:53:18.753Z,84.00
2022-11-21T03:55:48.277Z,83.70
2022-11-21T03:58:17.793Z,83.60
2022-11-21T04:00:49.325Z,83.00
2022-11-21T04:03:18.840Z,83.40
2022-11-21T04:05:48.414Z,83.00
2022-11-21T04:08:17.987Z,83.30
2022-11-21T04:10:52.443Z,83.40
2022-11-21T04:13:22.431Z,83.10
2022-11-21T04:15:52.030Z,82.60
2022-11-21T04:18:21.766Z,82.20
2022-11-21T04:20:51.369Z,81.20
2022-11-21T04:23:20.962Z,81.30
2022-11-21T04:25:50.553Z,80.80
2022-11-21T04:28:20.685Z,80.00
2022-11-21T04:30:52.488Z,80.30
2022-11-21T04:33:24.872Z,79.80
2022-11-21T04:35:54.727Z,80.00
2022-11-21T04:38:24.283Z,79.90
2022-11-21T04:40:53.799Z,79.40
2022-11-21T04:43:23.354Z,79.50
2022-11-21T04:45:52.917Z,79.20
2022-11-21T04:48:22.584Z,79.00
2022-11-21T04:50:53.312Z,78.90
2022-11-21T04:53:22.899Z,78.50
2022-11-21T04:55:52.502Z,78.50
2022-11-21T04:58:22.133Z,78.30
2022-11-21T05:00:51.763Z,77.50
2022-11-21T05:03:21.288Z,77.50
2022-11-21T05:05:51.177Z,77.60
2022-11-21T05:08:20.612Z,77.10
2022-11-21T05:11:10.010Z,76.50
2022-11-21T05:13:39.535Z,75.80
2022-11-21T05:16:09.151Z,75.20
2022-11-21T05:18:38.752Z,75.40
2022-11-21T05:21:08.247Z,74.40
2022-11-21T05:23:37.791Z,74.90
2022-11-21T05:26:08.193Z,74.80
2022-11-21T05:28:37.854Z,73.90
2022-11-21T05:31:07.378Z,74.20
2022-11-21T05:33:37.646Z,74.40
2022-11-21T05:36:07.620Z,73.30
2022-11-21T05:38:37.172Z,72.80
2022-11-21T05:41:06.717Z,73.00
2022-11-21T05:43:55.896Z,73.20
2022-11-21T05:46:27.626Z,72.40
2022-11-21T05:48:57.783Z,72.40
2022-11-21T05:51:27.414Z,72.00
2022-11-21T05:53:56.890Z,72.50
2022-11-21T05:56:29.662Z,72.20
2022-11-21T05:59:00.537Z,71.70
2022-11-21T06:01:49.733Z,71.70
2022-11-21T06:04:19.379Z,70.30
2022-11-21T06:06:48.921Z,70.20
2022-11-21T06:09:18.497Z,70.30
2022-11-21T06:11:48.146Z,70.40
2022-11-21T06:14:17.694Z,70.00
2022-11-21T06:16:47.254Z,69.90
2022-11-21T06:19:16.860Z,70.30
2022-11-21T06:21:46.390Z,69.90
2022-11-21T06:24:20.720Z,70.20
2022-11-21T06:26:51.645Z,69.10
2022-11-21T06:29:23.858Z,69.10
2022-11-21T06:31:53.484Z,68.60
2022-11-21T06:34:24.149Z,68.40
2022-11-21T06:36:54.385Z,68.70
2022-11-21T06:39:24.322Z,68.30
2022-11-21T06:41:54.271Z,68.40
2022-11-21T06:44:24.192Z,67.20
2022-11-21T06:46:54.115Z,67.30
2022-11-21T06:49:24.020Z,67.30
2022-11-21T06:51:54.225Z,68.10
2022-11-21T06:54:24.191Z,67.70
2022-11-21T06:56:57.159Z,67.30
2022-11-21T06:59:27.057Z,66.90
2022-11-21T07:01:56.986Z,66.50
2022-11-21T07:04:27.261Z,66.70
2022-11-21T07:06:57.512Z,65.50
2022-11-21T07:09:34.433Z,66.30
2022-11-21T07:12:24.512Z,66.00
2022-11-21T07:14:54.393Z,66.30
2022-11-21T07:17:24.230Z,65.80
2022-11-21T07:19:54.156Z,65.30
2022-11-21T07:22:24.129Z,65.30
2022-11-21T07:24:53.930Z,65.70
2022-11-21T07:27:23.857Z,65.90
2022-11-21T07:29:53.978Z,65.70
2022-11-21T07:32:24.279Z,65.50
2022-11-21T07:34:53.863Z,64.80
2022-11-21T07:37:23.455Z,65.00
2022-11-21T07:39:52.967Z,64.90
2022-11-21T07:42:22.529Z,64.90
2022-11-21T07:44:52.105Z,64.50
2022-11-21T07:47:21.671Z,64.60
2022-11-21T07:49:51.246Z,64.80
2022-11-21T07:52:20.826Z,64.50
2022-11-21T07:54:50.386Z,64.40
2022-11-21T07:57:20.035Z,64.20
2022-11-21T07:59:49.608Z,64.20
2022-11-21T08:02:25.775Z,64.00
2022-11-21T08:04:55.998Z,63.80
2022-11-21T08:07:26.538Z,63.90
2022-11-21T08:09:56.081Z,63.70
2022-11-21T08:12:25.651Z,63.90
2022-11-21T08:14:55.215Z,64.00
2022-11-21T08:17:24.773Z,64.00
2022-11-21T08:19:54.509Z,63.70
2022-11-21T08:22:24.083Z,63.80
2022-11-21T08:24:55.465Z,64.00
2022-11-21T08:27:26.154Z,64.10
2022-11-21T08:29:55.731Z,64.10
2022-11-21T08:32:26.651Z,63.90
2022-11-21T08:34:56.555Z,63.80
2022-11-21T08:37:26.494Z,63.50
2022-11-21T08:39:56.412Z,63.60
2022-11-21T08:42:26.439Z,63.60
2022-11-21T08:44:56.354Z,63.70
2022-11-21T08:47:26.279Z,63.50
2022-11-21T08:49:56.129Z,63.70
2022-11-21T08:52:26.054Z,63.60
2022-11-21T08:54:55.945Z,63.50
2022-11-21T08:57:25.927Z,63.60
2022-11-21T08:59:55.787Z,63.70
2022-11-21T09:02:25.692Z,63.20
2022-11-21T09:04:55.555Z,62.90
2022-11-21T09:07:25.582Z,63.20
2022-11-21T09:09:55.466Z,62.70
2022-11-21T09:12:25.363Z,63.30
2022-11-21T09:15:14.772Z,63.40
2022-11-21T09:18:04.305Z,63.50
2022-11-21T09:20:38.495Z,63.70
2022-11-21T09:23:10.096Z,63.80
2022-11-21T09:25:40.139Z,64.20
2022-11-21T09:28:12.566Z,64.40
2022-11-21T09:30:43.630Z,64.50
2022-11-21T09:33:16.054Z,64.40
2022-11-21T09:35:46.041Z,64.70
2022-11-21T09:38:18.614Z,64.90
2022-11-21T09:40:52.463Z,65.20
2022-11-21T09:43:56.764Z,65.50
2022-11-21T09:46:30.271Z,65.40
2022-11-21T09:49:06.529Z,65.40
2022-11-21T09:51:41.948Z,65.50
2022-11-21T09:54:21.311Z,65.50
2022-11-21T09:56:54.231Z,65.40
2022-11-21T09:59:40.452Z,65.40
2022-11-21T10:02:23.427Z,65.10
2022-11-21T10:04:54.317Z,65.20
2022-11-21T10:07:28.931Z,65.20
2022-11-21T10:10:26.701Z,65.30
2022-11-21T10:13:30.628Z,65.40
2022-11-21T10:16:22.985Z,65.20
2022-11-21T10:19:18.816Z,65.40
2022-11-21T10:22:27.508Z,65.20
2022-11-21T10:25:16.786Z,65.40
2022-11-21T10:28:02.763Z,65.70
2022-11-21T10:30:32.508Z,65.90
2022-11-21T10:33:06.338Z,66.20
2022-11-21T10:35:51.176Z,66.40
2022-11-21T10:38:30.803Z,66.60
2022-11-21T10:41:23.781Z,66.80
2022-11-21T10:44:34.698Z,67.00
2022-11-21T10:47:04.881Z,67.30
2022-11-21T10:49:36.438Z,68.00
2022-11-21T10:52:16.001Z,68.20
2022-11-21T10:55:10.437Z,68.60
2022-11-21T10:57:51.355Z,69.00
2022-11-21T11:00:28.185Z,69.40
2022-11-21T11:03:08.468Z,69.60
2022-11-21T11:05:43.179Z,69.90
2022-11-21T11:08:15.073Z,70.10
2022-11-21T11:11:02.296Z,70.40
2022-11-21T11:13:51.371Z,70.70
2022-11-21T11:16:23.220Z,71.20
2022-11-21T11:19:10.336Z,71.60
2022-11-21T11:21:49.612Z,72.00
2022-11-21T11:24:29.439Z,72.60
2022-11-21T11:27:04.859Z,72.80
2022-11-21T11:29:43.295Z,73.30
2022-11-21T11:32:21.940Z,73.50
2022-11-21T11:35:26.001Z,73.80
2022-11-21T11:38:07.857Z,74.20
2022-11-21T11:40:45.259Z,74.60
2022-11-21T11:44:05.067Z,75.00
2022-11-21T11:47:26.842Z,75.30
2022-11-21T11:50:13.210Z,75.30
2022-11-21T11:53:21.943Z,75.60
2022-11-21T11:56:02.954Z,75.80
2022-11-21T11:59:02.204Z,75.70
2022-11-21T12:01:50.842Z,76.20
2022-11-21T12:04:23.531Z,76.40
2022-11-21T12:11:09.386Z,77.10
2022-11-21T12:13:39.361Z,77.70
2022-11-21T12:16:14.731Z,78.40
2022-11-21T12:18:58.454Z,78.70
2022-11-21T12:21:28.513Z,79.00
2022-11-21T12:24:00.292Z,79.20
2022-11-21T12:27:01.402Z,79.30
2022-11-21T12:29:58.273Z,79.80
2022-11-21T12:33:08.473Z,80.30
2022-11-21T12:36:17.259Z,80.20
2022-11-21T12:39:20.132Z,80.60
2022-11-21T12:42:20.663Z,80.50
2022-11-21T12:45:21.373Z,80.60
2022-11-21T12:48:38.720Z,80.90
2022-11-21T12:51:38.014Z,81.70
2022-11-21T12:54:40.332Z,82.90
2022-11-21T12:57:19.717Z,82.10
2022-11-21T13:00:20.534Z,82.30
2022-11-21T13:03:25.015Z,82.40
2022-11-21T13:05:59.214Z,82.40
2022-11-21T13:08:33.115Z,82.40
2022-11-21T13:12:01.512Z,83.40
2022-11-21T13:15:03.830Z,83.30
2022-11-21T13:17:52.198Z,83.80
2022-11-21T13:20:42.308Z,84.00
2022-11-21T13:23:52.224Z,83.80
2022-11-21T13:26:49.910Z,84.20
2022-11-21T13:29:19.203Z,84.40
2022-11-21T13:31:49.803Z,85.20
2022-11-21T13:34:41.159Z,84.30
2022-11-21T13:37:11.581Z,84.30
2022-11-21T13:39:41.561Z,84.40
2022-11-21T13:42:32.643Z,84.50
2022-11-21T13:45:42.281Z,85.00
2022-11-21T13:48:51.063Z,85.30
2022-11-21T13:51:59.926Z,85.50
2022-11-21T13:54:56.689Z,85.60
2022-11-21T13:57:59.835Z,85.60
2022-11-21T14:00:58.520Z,86.00
2022-11-21T14:04:07.308Z,86.00
2022-11-21T14:06:45.103Z,86.20
2022-11-21T14:09:26.909Z,86.00
2022-11-21T14:12:01.584Z,87.10
2022-11-21T14:14:52.675Z,86.80
2022-11-21T14:17:58.703Z,86.80
2022-11-21T14:20:33.678Z,87.10
2022-11-21T14:23:18.085Z,86.90
2022-11-21T14:25:53.080Z,87.00
2022-11-21T14:28:42.362Z,87.20
2022-11-21T14:31:17.303Z,87.40
2022-11-21T14:33:50.951Z,87.50
2022-11-21T14:36:31.555Z,87.20
2022-11-21T14:39:35.228Z,87.40
2022-11-21T14:41:59.971Z,87.50
2022-11-21T14:44:30.098Z,87.80
2022-11-21T14:47:25.890Z,87.70
2022-11-21T14:50:03.787Z,88.10
2022-11-21T14:52:37.003Z,88.20
2022-11-21T14:55:30.159Z,88.40
2022-11-21T14:58:02.568Z,88.80
2022-11-21T15:01:02.566Z,89.00
2022-11-21T15:03:25.427Z,88.70
2022-11-21T15:06:08.614Z,88.90
2022-11-21T15:11:42.643Z,89.30
2022-11-21T15:14:27.612Z,89.20
2022-11-21T15:16:59.661Z,89.20
2022-11-21T15:19:31.005Z,89.30
2022-11-21T15:22:04.421Z,89.20
2022-11-21T15:24:44.768Z,89.30
2022-11-21T15:27:35.160Z,89.60
2022-11-21T15:30:23.776Z,89.90
2022-11-21T15:33:22.841Z,90.00
2022-11-21T15:35:59.857Z,90.00
2022-11-21T15:38:55.182Z,89.90
2022-11-21T15:41:28.705Z,90.00
2022-11-21T15:44:22.362Z,90.00
2022-11-21T15:46:54.268Z,90.10
2022-11-21T15:49:32.795Z,90.10
2022-11-21T15:52:07.246Z,90.10
2022-11-21T15:54:38.536Z,90.20
2022-11-21T15:57:08.086Z,90.20
2022-11-21T15:59:37.730Z,90.20
2022-11-21T16:02:07.330Z,90.20
2022-11-21T16:04:36.936Z,90.30
2022-11-21T16:07:06.627Z,90.20
2022-11-21T16:09:37.741Z,90.30
2022-11-21T16:12:07.604Z,90.30
2022-11-21T16:14:37.391Z,90.30
2022-11-21T16:17:07.258Z,90.30
2022-11-21T16:19:37.115Z,90.30
2022-11-21T16:22:07.042Z,90.40
2022-11-21T16:24:36.899Z,90.40
2022-11-21T16:27:06.800Z,90.30
2022-11-21T16:29:37.035Z,90.40
2022-11-21T16:32:07.016Z,90.40
2022-11-21T16:34:36.847Z,90.40
2022-11-21T16:37:07.707Z,90.40
2022-11-21T16:39:37.869Z,90.50
2022-11-21T16:42:11.772Z,90.50
2022-11-21T16:44:44.754Z,90.50
2022-11-21T16:47:16.020Z,90.50
2022-11-21T16:49:48.767Z,90.50
2022-11-21T16:52:19.784Z,90.60
2022-11-21T16:54:49.411Z,90.60
2022-11-21T16:57:19.062Z,90.60
2022-11-21T16:59:48.604Z,90.60
2022-11-21T17:02:18.566Z,90.60
2022-11-21T17:04:48.461Z,90.60
2022-11-21T17:07:18.355Z,90.60
2022-11-21T17:09:48.278Z,90.60
2022-11-21T17:12:18.170Z,90.70
2022-11-21T17:14:49.992Z,90.70
2022-11-21T17:17:20.622Z,90.70
2022-11-21T17:19:50.603Z,90.70
2022-11-21T17:22:24.783Z,90.80
2022-11-21T17:24:55.455Z,90.80
2022-11-21T17:27:26.187Z,90.80
2022-11-21T17:29:56.178Z,90.80
2022-11-21T17:32:26.177Z,90.90
2022-11-21T17:34:56.055Z,90.90
2022-11-21T17:37:26.520Z,90.90
2022-11-21T17:39:56.384Z,90.90
2022-11-21T17:42:28.525Z,90.90
2022-11-21T17:44:58.458Z,91.00
2022-11-21T17:47:28.280Z,91.00
2022-11-21T17:50:02.582Z,91.00
2022-11-21T17:52:35.381Z,91.10
2022-11-21T17:55:05.365Z,91.10
2022-11-21T17:57:35.261Z,91.10
2022-11-21T18:00:06.187Z,91.10
2022-11-21T18:02:36.246Z,91.10
2022-11-21T18:05:06.616Z,91.10
2022-11-21T18:07:37.369Z,91.10
2022-11-21T18:10:35.069Z,91.10
2022-11-21T18:12:57.447Z,91.10
2022-11-21T18:15:27.268Z,91.20
2022-11-21T18:17:57.147Z,91.20
2022-11-21T18:20:27.062Z,91.10
2022-11-21T18:22:57.009Z,91.20
2022-11-21T18:25:26.833Z,91.20
2022-11-21T18:27:56.732Z,91.20
2022-11-21T18:30:26.290Z,91.20
2022-11-21T18:32:55.854Z,91.20
2022-11-21T18:35:25.528Z,91.30
2022-11-21T18:37:55.588Z,91.30
2022-11-21T18:40:25.127Z,91.30
2022-11-21T18:42:54.752Z,91.40
2022-11-21T18:45:24.301Z,91.40
2022-11-21T18:47:53.852Z,91.40
2022-11-21T18:50:23.365Z,91.80
2022-11-21T18:52:53.549Z,91.50
2022-11-21T18:55:24.723Z,91.70
2022-11-21T18:57:54.449Z,91.60
2022-11-21T19:00:24.149Z,91.50
2022-11-21T19:02:54.018Z,91.50
2022-11-21T19:05:23.949Z,91.50
2022-11-21T19:07:55.171Z,91.50
2022-11-21T19:13:15.166Z,91.60
2022-11-21T19:15:44.992Z,91.60
2022-11-21T19:18:15.073Z,91.60
2022-11-21T19:20:44.700Z,91.60
2022-11-21T19:23:14.299Z,91.60
2022-11-21T19:25:43.819Z,91.70
2022-11-21T19:28:13.580Z,91.60
2022-11-21T19:30:43.161Z,91.60
2022-11-21T19:33:12.737Z,91.70
2022-11-21T19:35:42.573Z,91.70
2022-11-21T19:38:12.134Z,91.70
2022-11-21T19:41:01.487Z,91.70
2022-11-21T19:43:32.369Z,91.80
2022-11-21T19:46:05.849Z,91.80
2022-11-21T19:48:35.721Z,91.80
2022-11-21T19:51:09.300Z,91.90
2022-11-21T19:53:40.906Z,92.00
2022-11-21T19:56:28.263Z,91.90
2022-11-21T19:58:58.820Z,91.90
2022-11-21T20:01:30.541Z,92.00
2022-11-21T20:04:03.076Z,91.90
2022-11-21T20:06:38.682Z,91.90
2022-11-21T20:09:20.607Z,92.00
2022-11-21T20:11:53.693Z,92.00
2022-11-21T20:14:23.415Z,92.00
2022-11-21T20:16:54.712Z,92.00
2022-11-21T20:19:26.362Z,92.00
2022-11-21T20:21:56.026Z,92.00
2022-11-21T20:24:25.606Z,92.00
2022-11-21T20:26:55.524Z,92.10
2022-11-21T20:29:25.104Z,92.10
2022-11-21T20:31:55.914Z,92.10
2022-11-21T20:34:25.672Z,92.10
2022-11-21T20:36:55.900Z,92.20
2022-11-21T20:39:27.462Z,92.20
2022-11-21T20:41:57.473Z,92.20
2022-11-21T20:45:11.689Z,92.30
2022-11-21T20:47:18.384Z,92.30
2022-11-21T20:49:47.944Z,92.30
2022-11-21T20:55:08.014Z,92.40
2022-11-21T20:57:37.571Z,92.40
2022-11-21T21:00:07.955Z,92.30
2022-11-21T21:02:37.494Z,92.30
2022-11-21T21:05:08.028Z,92.30
2022-11-21T21:07:37.690Z,92.30
2022-11-21T21:10:08.029Z,92.30
2022-11-21T21:12:37.577Z,92.40
2022-11-21T21:15:07.513Z,92.50
2022-11-21T21:17:38.148Z,92.50
2022-11-21T21:20:08.420Z,92.60
2022-11-21T21:22:39.005Z,92.60
2022-11-21T21:25:08.969Z,92.70
2022-11-21T21:27:38.566Z,92.80
2022-11-21T21:30:08.804Z,92.90
2022-11-21T21:32:38.406Z,92.90
2022-11-21T21:35:08.441Z,92.90
2022-11-21T21:37:38.912Z,92.90
2022-11-21T21:40:09.605Z,93.00
2022-11-21T21:42:39.462Z,93.00
2022-11-21T21:45:09.898Z,93.00
2022-11-21T21:47:39.889Z,93.00
2022-11-21T21:50:15.636Z,93.00
2022-11-21T21:52:46.008Z,93.20
2022-11-21T21:55:15.883Z,93.00
2022-11-21T21:57:51.117Z,93.00
2022-11-21T22:00:22.284Z,93.10
2022-11-21T22:02:52.127Z,93.00
2022-11-21T22:05:22.001Z,93.00
2022-11-21T22:07:51.649Z,93.00
2022-11-21T22:10:21.346Z,93.00
2022-11-21T22:12:50.873Z,93.00
2022-11-21T22:15:20.411Z,93.10
2022-11-21T22:17:50.037Z,93.10
2022-11-21T22:20:19.702Z,93.20
2022-11-21T22:22:49.331Z,93.10
2022-11-21T22:25:18.925Z,93.10
2022-11-21T22:27:48.503Z,93.20
2022-11-21T22:30:18.387Z,93.20
2022-11-21T22:32:48.020Z,93.20
2022-11-21T22:35:17.883Z,93.20
2022-11-21T22:37:51.091Z,93.20
2022-11-21T22:40:20.950Z,93.30
2022-11-21T22:42:50.865Z,93.30
2022-11-21T22:45:20.919Z,93.30
2022-11-21T22:47:51.086Z,93.30
2022-11-21T22:50:21.049Z,93.40
2022-11-21T22:52:50.960Z,93.40
2022-11-21T22:55:20.886Z,93.40
2022-11-21T22:57:50.775Z,93.40
2022-11-21T23:00:21.131Z,93.40
2022-11-21T23:02:51.068Z,93.30
2022-11-21T23:05:21.663Z,93.40
2022-11-21T23:07:51.625Z,93.40
2022-11-21T23:10:21.342Z,93.50
2022-11-21T23:12:50.900Z,93.50
2022-11-21T23:15:20.394Z,93.50
2022-11-21T23:17:53.816Z,93.50
2022-11-21T23:20:23.497Z,93.50
2022-11-21T23:22:53.001Z,93.50
2022-11-21T23:25:22.703Z,93.50
2022-11-21T23:27:52.515Z,93.40
2022-11-21T23:30:22.078Z,93.40
2022-11-21T23:32:51.674Z,93.40
2022-11-21T23:35:21.791Z,93.50
2022-11-21T23:37:51.791Z,93.60
2022-11-21T23:40:21.771Z,93.70
2022-11-21T23:42:51.658Z,93.60
2022-11-21T23:45:21.570Z,93.70
2022-11-21T23:47:51.626Z,93.80
2022-11-21T23:50:22.836Z,93.80
2022-11-21T23:52:52.851Z,93.80
2022-11-21T23:55:22.701Z,93.80
2022-11-21T23:57:53.216Z,93.90
